COL2 weather

Orangeville / Laurel Airstrip
Orangeville, Ontario, Canada

Public forecast

Using degrees Celsius for public forecast. Weather courtesy of forecast.io.

METAR (pilot weather report)

Closest report is CFB Borden, 24.8 nm (45.9 km) NNE. Retrieved 2019/05/23 03:00 UTC (13 minutes ago):

CYBN 230300Z AUTO 17003KT 9SM FEW035 09/05 A3005 RMK SLP180

TAF (pilot weather forecast)

Forecast is more than 12 hours old.

Closest forecast is CFB Borden, 24.8 nm (45.9 km) NNE. Retrieved 2019/05/22 00:33 UTC (1 day ago):

TAF TAF CYBN 222330Z 2300/2312 18005KT P6SM OVC050 TEMPO 2300/2303 P6SM -SHRA FM230300 15005KT P6SM SCT030 FM230700 VRB03KT P6SM SCT015 BKN030 OVC140 TEMPO 2307/2312 BKN015 OVC025 RMK FCST BASED ON AUTO OBS. NXT FCST BY 230600Z